createdAt,value
2022-09-23T00:01:10.228Z,5.90
2022-09-23T00:03:39.155Z,5.80
2022-09-23T00:06:07.833Z,4.90
2022-09-23T00:08:35.157Z,5.00
2022-09-23T00:11:10.791Z,6.90
2022-09-23T00:13:38.755Z,5.60
2022-09-23T00:16:07.565Z,7.70
2022-09-23T00:18:33.774Z,5.20
2022-09-23T00:21:10.032Z,4.80
2022-09-23T00:23:37.185Z,4.60
2022-09-23T00:26:05.498Z,4.10
2022-09-23T00:28:32.689Z,5.60
2022-09-23T00:31:08.150Z,5.20
2022-09-23T00:33:34.821Z,3.80
2022-09-23T00:36:03.163Z,4.00
2022-09-23T00:38:29.503Z,4.50
2022-09-23T00:40:58.004Z,3.50
2022-09-23T00:43:43.115Z,3.50
2022-09-23T00:46:16.092Z,3.60
2022-09-23T00:48:43.525Z,3.90
2022-09-23T00:51:13.506Z,2.90
2022-09-23T00:53:40.973Z,4.50
2022-09-23T00:56:09.396Z,3.60
2022-09-23T00:58:39.225Z,2.60
2022-09-23T01:01:05.549Z,4.20
2022-09-23T01:03:32.020Z,3.30
2022-09-23T01:05:58.837Z,3.30
2022-09-23T01:08:26.734Z,4.80
2022-09-23T01:11:10.400Z,2.00
2022-09-23T01:14:01.356Z,2.90
2022-09-23T01:16:37.507Z,2.50
2022-09-23T01:19:03.657Z,3.40
2022-09-23T01:22:06.613Z,3.00
2022-09-23T01:24:46.315Z,2.40
2022-09-23T01:27:31.405Z,3.40
2022-09-23T01:30:09.745Z,2.90
2022-09-23T01:33:04.437Z,6.90
2022-09-23T01:35:59.784Z,3.90
2022-09-23T01:38:35.404Z,4.40
2022-09-23T01:41:49.924Z,2.50
2022-09-23T01:44:22.556Z,3.20
2022-09-23T01:47:25.057Z,3.70
2022-09-23T01:50:02.887Z,2.80
2022-09-23T01:52:47.332Z,5.10
2022-09-23T01:55:25.401Z,3.80
2022-09-23T01:58:04.497Z,3.70
2022-09-23T02:00:35.352Z,3.20
2022-09-23T02:03:12.765Z,5.20
2022-09-23T02:05:47.690Z,3.80
2022-09-23T02:08:20.786Z,6.10
2022-09-23T02:11:00.074Z,3.80
2022-09-23T02:13:42.048Z,4.20
2022-09-23T02:16:42.007Z,5.70
2022-09-23T02:19:26.813Z,3.70
2022-09-23T02:22:00.749Z,3.40
2022-09-23T02:24:31.248Z,4.70
2022-09-23T02:27:12.362Z,4.00
2022-09-23T02:29:50.775Z,4.20
2022-09-23T02:32:25.957Z,4.80
2022-09-23T02:35:07.579Z,5.20
2022-09-23T02:37:47.143Z,5.50
2022-09-23T02:40:23.006Z,5.20
2022-09-23T02:43:05.649Z,5.10
2022-09-23T02:45:33.235Z,4.60
2022-09-23T02:48:09.169Z,5.80
2022-09-23T02:50:37.729Z,5.60
2022-09-23T02:53:04.455Z,3.90
2022-09-23T02:55:33.865Z,6.90
2022-09-23T02:58:02.015Z,3.60
2022-09-23T03:00:53.554Z,5.70
2022-09-23T03:03:48.200Z,5.00
2022-09-23T03:06:24.415Z,3.70
2022-09-23T03:09:35.460Z,5.90
2022-09-23T03:12:26.799Z,4.80
2022-09-23T03:14:58.407Z,3.60
2022-09-23T03:17:46.274Z,3.50
2022-09-23T03:20:26.042Z,2.70
2022-09-23T03:23:00.345Z,3.70
2022-09-23T03:25:31.113Z,4.90
2022-09-23T03:28:00.609Z,5.10
2022-09-23T03:30:28.115Z,5.40
2022-09-23T03:32:56.839Z,3.70
2022-09-23T03:35:26.956Z,6.00
2022-09-23T03:38:13.000Z,4.60
2022-09-23T03:40:47.223Z,4.70
2022-09-23T03:43:13.998Z,4.00
2022-09-23T03:45:42.089Z,4.40
2022-09-23T03:48:08.416Z,6.70
2022-09-23T03:50:38.783Z,3.50
2022-09-23T03:53:04.898Z,3.60
2022-09-23T03:55:31.838Z,3.30
2022-09-23T03:57:59.876Z,5.10
2022-09-23T04:00:27.310Z,3.50
2022-09-23T04:02:53.456Z,3.80
2022-09-23T04:05:19.656Z,4.70
2022-09-23T04:07:45.841Z,3.90
2022-09-23T04:10:12.022Z,3.90
2022-09-23T04:12:38.253Z,5.50
2022-09-23T04:15:05.040Z,6.10
2022-09-23T04:17:31.149Z,4.30
2022-09-23T04:19:57.325Z,5.10
2022-09-23T04:22:25.502Z,4.30
2022-09-23T04:24:51.583Z,4.50
2022-09-23T04:27:17.792Z,5.00
2022-09-23T04:29:44.906Z,4.50
2022-09-23T04:32:11.313Z,6.60
2022-09-23T04:34:37.478Z,6.20
2022-09-23T04:37:03.956Z,5.80
2022-09-23T04:39:30.431Z,4.90
2022-09-23T04:41:56.602Z,5.80
2022-09-23T04:44:22.938Z,4.90
2022-09-23T04:46:49.279Z,4.70
2022-09-23T04:49:15.945Z,5.70
2022-09-23T04:51:43.009Z,6.80
2022-09-23T04:54:11.189Z,4.80
2022-09-23T04:56:37.636Z,5.90
2022-09-23T04:59:03.786Z,7.10
2022-09-23T05:01:36.591Z,7.60
2022-09-23T05:04:08.749Z,6.10
2022-09-23T05:06:35.816Z,7.50
2022-09-23T05:09:05.294Z,7.00
2022-09-23T05:11:32.353Z,10.30
2022-09-23T05:13:58.786Z,9.40
2022-09-23T05:16:26.700Z,9.60
2022-09-23T05:18:53.570Z,6.30
2022-09-23T05:21:23.260Z,7.60
2022-09-23T05:23:54.258Z,11.70
2022-09-23T05:26:25.361Z,8.10
2022-09-23T05:28:52.655Z,10.00
2022-09-23T05:31:22.177Z,5.80
2022-09-23T05:33:54.021Z,5.80
2022-09-23T05:36:21.801Z,8.00
2022-09-23T05:38:49.341Z,6.90
2022-09-23T05:41:17.561Z,8.90
2022-09-23T05:43:44.141Z,6.40
2022-09-23T05:46:16.592Z,5.20
2022-09-23T05:48:45.569Z,6.30
2022-09-23T05:51:18.556Z,9.50
2022-09-23T05:53:45.157Z,6.50
2022-09-23T05:56:16.784Z,7.20
2022-09-23T05:58:43.442Z,9.00
2022-09-23T06:01:12.836Z,7.00
2022-09-23T06:03:40.346Z,13.50
2022-09-23T06:06:07.458Z,9.00
2022-09-23T06:08:34.086Z,10.60
2022-09-23T06:11:08.519Z,14.50
2022-09-23T06:13:38.149Z,12.50
2022-09-23T06:16:10.298Z,12.40
2022-09-23T06:18:41.475Z,14.50
2022-09-23T06:21:11.334Z,15.50
2022-09-23T06:23:40.820Z,10.50
2022-09-23T06:26:09.978Z,9.70
2022-09-23T06:28:38.156Z,9.30
2022-09-23T06:31:13.328Z,7.90
2022-09-23T06:33:42.320Z,8.40
2022-09-23T06:36:09.917Z,6.90
2022-09-23T06:38:39.537Z,7.10
2022-09-23T06:41:05.805Z,7.20
2022-09-23T06:43:31.949Z,5.80
2022-09-23T06:46:00.225Z,6.80
2022-09-23T06:48:27.889Z,12.10
2022-09-23T06:50:57.951Z,6.70
2022-09-23T06:53:24.206Z,5.70
2022-09-23T06:56:03.368Z,8.90
2022-09-23T06:58:31.339Z,8.20
2022-09-23T07:01:06.992Z,7.00
2022-09-23T07:03:34.099Z,9.30
2022-09-23T07:06:01.317Z,7.20
2022-09-23T07:08:30.099Z,7.70
2022-09-23T07:10:58.541Z,7.80
2022-09-23T07:13:24.858Z,6.40
2022-09-23T07:15:52.781Z,9.10
2022-09-23T07:18:20.258Z,6.50
2022-09-23T07:20:46.419Z,5.10
2022-09-23T07:23:12.801Z,7.50
2022-09-23T07:25:39.546Z,8.40
2022-09-23T07:28:06.700Z,6.30
2022-09-23T07:30:37.129Z,5.30
2022-09-23T07:33:12.552Z,6.20
2022-09-23T07:35:47.227Z,6.30
2022-09-23T07:38:13.381Z,7.10
2022-09-23T07:40:39.587Z,8.60
2022-09-23T07:43:09.646Z,7.90
2022-09-23T07:45:38.475Z,8.30
2022-09-23T07:48:04.807Z,4.80
2022-09-23T07:50:31.751Z,6.10
2022-09-23T07:52:57.950Z,5.70
2022-09-23T07:55:24.151Z,6.30
2022-09-23T07:57:50.385Z,5.50
2022-09-23T08:00:17.384Z,5.00
2022-09-23T08:02:43.543Z,7.90
2022-09-23T08:05:09.820Z,5.40
2022-09-23T08:07:36.157Z,7.30
2022-09-23T08:10:03.132Z,4.90
2022-09-23T08:12:32.546Z,5.10
2022-09-23T08:15:00.894Z,5.70
2022-09-23T08:17:29.870Z,4.00
2022-09-23T08:19:55.991Z,5.20
2022-09-23T08:22:35.447Z,2.50
2022-09-23T08:25:03.275Z,2.80
2022-09-23T08:27:32.914Z,2.90
2022-09-23T08:30:00.623Z,2.60
2022-09-23T08:32:32.058Z,3.00
2022-09-23T08:34:59.390Z,3.60
2022-09-23T08:37:27.205Z,2.70
2022-09-23T08:39:55.065Z,2.20
2022-09-23T08:42:42.411Z,1.80
2022-09-23T08:45:18.431Z,2.60
2022-09-23T08:47:53.378Z,1.80
2022-09-23T08:50:23.874Z,1.70
2022-09-23T08:53:30.624Z,2.20
2022-09-23T08:55:59.745Z,2.30
2022-09-23T08:59:11.407Z,1.80
2022-09-23T09:01:54.332Z,3.30
2022-09-23T09:04:44.032Z,2.50
2022-09-23T09:07:35.646Z,2.60
2022-09-23T09:10:21.043Z,2.60
2022-09-23T09:13:25.793Z,2.20
2022-09-23T09:16:10.996Z,2.00
2022-09-23T09:18:46.202Z,2.20
2022-09-23T09:21:14.397Z,1.30
2022-09-23T09:23:57.401Z,1.30
2022-09-23T09:26:27.632Z,1.50
2022-09-23T09:29:34.748Z,1.20
2022-09-23T09:32:29.382Z,1.00
2022-09-23T09:35:01.588Z,1.60
2022-09-23T09:37:41.693Z,1.10
2022-09-23T09:40:25.210Z,1.60
2022-09-23T09:42:55.644Z,1.60
2022-09-23T09:45:53.859Z,1.30
2022-09-23T09:48:45.410Z,3.60
2022-09-23T09:51:32.627Z,3.30
2022-09-23T09:54:28.362Z,4.30
2022-09-23T09:57:02.504Z,2.10
2022-09-23T09:59:39.359Z,3.70
2022-09-23T10:02:33.412Z,2.90
2022-09-23T10:05:20.053Z,1.80
2022-09-23T10:07:48.438Z,3.00
2022-09-23T10:10:33.445Z,3.10
2022-09-23T10:13:15.269Z,3.90
2022-09-23T10:15:45.230Z,3.90
2022-09-23T10:18:46.954Z,5.30
2022-09-23T10:21:27.807Z,5.10
2022-09-23T10:24:09.063Z,2.70
2022-09-23T10:26:44.166Z,2.60
2022-09-23T10:30:00.656Z,2.00
2022-09-23T10:32:43.376Z,1.60
2022-09-23T10:35:15.976Z,2.40
2022-09-23T10:38:00.622Z,4.20
2022-09-23T10:40:51.776Z,3.00
2022-09-23T10:44:08.844Z,3.90
2022-09-23T10:46:53.623Z,1.90
2022-09-23T10:49:38.612Z,2.50
2022-09-23T10:52:22.675Z,3.00
2022-09-23T10:55:13.390Z,3.80
2022-09-23T10:57:51.963Z,4.40
2022-09-23T11:00:37.401Z,2.30
2022-09-23T11:03:22.909Z,2.20
2022-09-23T11:05:48.940Z,2.20
2022-09-23T11:08:34.011Z,1.30
2022-09-23T11:11:18.852Z,1.40
2022-09-23T11:14:21.648Z,1.90
2022-09-23T11:16:57.612Z,1.30
2022-09-23T11:19:52.575Z,1.60
2022-09-23T11:22:38.240Z,4.00
2022-09-23T11:25:07.308Z,1.30
2022-09-23T11:27:51.620Z,1.30
2022-09-23T11:30:22.656Z,1.10
2022-09-23T11:35:56.934Z,1.20
2022-09-23T11:38:44.045Z,3.30
2022-09-23T11:41:27.559Z,2.40
2022-09-23T11:44:23.102Z,1.10
2022-09-23T11:47:07.677Z,2.10
2022-09-23T11:49:46.057Z,2.60
2022-09-23T11:52:29.235Z,1.70
2022-09-23T11:55:10.070Z,2.20
2022-09-23T11:58:06.149Z,1.60
2022-09-23T12:00:38.891Z,2.80
2022-09-23T12:03:06.478Z,2.90
2022-09-23T12:05:39.530Z,2.30
2022-09-23T12:08:22.745Z,1.20
2022-09-23T12:11:27.868Z,2.90
2022-09-23T12:14:34.344Z,1.70
2022-09-23T12:17:14.286Z,1.50
2022-09-23T12:19:42.082Z,2.00
2022-09-23T12:22:20.140Z,1.30
2022-09-23T12:24:58.469Z,1.70
2022-09-23T12:27:37.780Z,1.60
2022-09-23T12:30:29.478Z,1.80
2022-09-23T12:33:09.637Z,1.30
2022-09-23T12:35:44.349Z,2.10
2022-09-23T12:38:32.207Z,1.70
2022-09-23T12:40:59.466Z,1.50
2022-09-23T12:43:35.196Z,2.20
2022-09-23T12:46:27.813Z,2.60
2022-09-23T12:49:00.640Z,2.00
2022-09-23T12:51:29.778Z,2.10
2022-09-23T12:54:05.213Z,2.20
2022-09-23T12:56:34.082Z,3.10
2022-09-23T12:59:11.720Z,2.70
2022-09-23T13:01:38.765Z,3.50
2022-09-23T13:04:23.417Z,2.60
2022-09-23T13:07:08.724Z,3.50
2022-09-23T13:10:27.183Z,4.90
2022-09-23T13:12:55.405Z,2.40
2022-09-23T13:15:34.220Z,2.60
2022-09-23T13:18:19.773Z,2.60
2022-09-23T13:20:47.869Z,2.30
2022-09-23T13:23:16.832Z,4.60
2022-09-23T13:25:51.812Z,5.50
2022-09-23T13:28:32.598Z,2.40
2022-09-23T13:31:07.636Z,3.40
2022-09-23T13:33:51.430Z,2.10
2022-09-23T13:36:20.051Z,2.10
2022-09-23T13:39:02.034Z,2.50
2022-09-23T13:41:28.737Z,1.80
2022-09-23T13:43:58.402Z,2.50
2022-09-23T13:46:34.774Z,2.00
2022-09-23T13:49:02.870Z,1.70
2022-09-23T13:51:34.592Z,2.30
2022-09-23T13:54:03.560Z,3.20
2022-09-23T13:56:34.824Z,2.40
2022-09-23T13:59:25.317Z,4.00
2022-09-23T14:02:20.279Z,2.00
2022-09-23T14:04:46.503Z,3.20
2022-09-23T14:07:15.333Z,3.90
2022-09-23T14:09:46.308Z,4.40
2022-09-23T14:12:13.042Z,3.70
2022-09-23T14:14:41.510Z,1.60
2022-09-23T14:17:09.762Z,2.00
2022-09-23T14:19:36.827Z,2.30
2022-09-23T14:22:02.944Z,2.70
2022-09-23T14:24:29.051Z,3.10
2022-09-23T14:27:06.344Z,2.30
2022-09-23T14:29:36.089Z,1.90
2022-09-23T14:32:12.245Z,2.10
2022-09-23T14:34:51.065Z,3.10
2022-09-23T14:37:38.458Z,3.40
2022-09-23T14:40:19.025Z,2.40
2022-09-23T14:42:51.817Z,3.60
2022-09-23T14:45:22.457Z,1.90
2022-09-23T14:47:53.232Z,3.70
2022-09-23T14:50:43.283Z,3.40
2022-09-23T14:53:22.084Z,1.90
2022-09-23T14:56:11.237Z,2.30
2022-09-23T14:58:52.281Z,2.50
2022-09-23T15:01:34.221Z,4.40
2022-09-23T15:04:23.421Z,3.40
2022-09-23T15:07:15.683Z,3.50
2022-09-23T15:09:43.643Z,2.50
2022-09-23T15:12:21.297Z,4.50
2022-09-23T15:14:53.976Z,6.70
2022-09-23T15:17:23.027Z,4.60
2022-09-23T15:19:56.328Z,3.90
2022-09-23T15:22:24.778Z,4.50
2022-09-23T15:24:53.011Z,5.80
2022-09-23T15:27:35.036Z,5.00
2022-09-23T15:30:16.804Z,3.00
2022-09-23T15:32:45.288Z,4.30
2022-09-23T15:35:25.097Z,5.20
2022-09-23T15:37:53.559Z,5.10
2022-09-23T15:40:30.879Z,9.60
2022-09-23T15:43:00.112Z,7.30
2022-09-23T15:45:33.472Z,6.50
2022-09-23T15:48:06.861Z,6.60
2022-09-23T15:50:35.387Z,7.80
2022-09-23T15:53:02.090Z,6.40
2022-09-23T15:55:28.431Z,7.70
2022-09-23T15:57:54.713Z,8.40
2022-09-23T16:00:21.036Z,7.70
2022-09-23T16:02:49.461Z,8.10
2022-09-23T16:05:34.982Z,8.30
2022-09-23T16:08:07.858Z,7.30
2022-09-23T16:10:35.745Z,8.00
2022-09-23T16:13:04.458Z,8.70
2022-09-23T16:15:32.625Z,8.30
2022-09-23T16:17:59.867Z,7.80
2022-09-23T16:20:29.256Z,8.40
2022-09-23T16:23:00.688Z,7.60
2022-09-23T16:25:31.409Z,9.40
2022-09-23T16:27:58.454Z,11.00
2022-09-23T16:30:27.125Z,9.80
2022-09-23T16:32:54.178Z,13.60
2022-09-23T16:35:26.366Z,12.70
2022-09-23T16:37:52.673Z,14.20
2022-09-23T16:40:21.520Z,19.90
2022-09-23T16:42:49.301Z,25.60
2022-09-23T16:45:18.529Z,24.00
2022-09-23T16:48:04.351Z,17.80
2022-09-23T16:50:39.075Z,15.70
2022-09-23T16:53:06.978Z,17.80
2022-09-23T16:55:38.088Z,18.50
2022-09-23T16:58:06.165Z,15.00
2022-09-23T17:00:53.961Z,13.70
2022-09-23T17:03:39.123Z,19.20
2022-09-23T17:06:08.044Z,17.90
2022-09-23T17:08:34.584Z,16.50
2022-09-23T17:11:03.995Z,18.20
2022-09-23T17:13:40.010Z,21.80
2022-09-23T17:16:09.452Z,19.50
2022-09-23T17:18:38.764Z,22.30
2022-09-23T17:21:26.317Z,17.90
2022-09-23T17:24:51.989Z,14.40
2022-09-23T17:27:19.364Z,11.60
2022-09-23T17:29:45.660Z,16.10
2022-09-23T17:32:11.810Z,22.80
2022-09-23T17:34:37.911Z,19.30
2022-09-23T17:37:04.130Z,21.50
2022-09-23T17:39:31.195Z,26.20
2022-09-23T17:41:58.020Z,26.00
2022-09-23T17:44:39.309Z,20.20
2022-09-23T17:47:05.763Z,17.60
2022-09-23T17:52:27.477Z,20.60
2022-09-23T17:54:54.491Z,23.20
2022-09-23T17:57:21.443Z,24.70
2022-09-23T17:59:50.229Z,25.30
2022-09-23T18:02:16.815Z,30.40
2022-09-23T18:04:42.990Z,26.60
2022-09-23T18:07:09.162Z,28.00
2022-09-23T18:09:35.378Z,21.80
2022-09-23T18:12:01.737Z,20.20
2022-09-23T18:14:28.962Z,21.10
2022-09-23T18:16:55.136Z,18.60
2022-09-23T18:19:24.046Z,19.20
2022-09-23T18:21:53.943Z,19.00
2022-09-23T18:24:31.731Z,19.00
2022-09-23T18:26:59.282Z,19.30
2022-09-23T18:29:26.199Z,18.20
2022-09-23T18:31:52.583Z,18.10
2022-09-23T18:34:19.973Z,16.70
2022-09-23T18:36:46.643Z,15.00
2022-09-23T18:39:12.926Z,12.70
2022-09-23T18:41:40.625Z,20.40
2022-09-23T18:44:06.934Z,25.60
2022-09-23T18:46:33.136Z,37.90
2022-09-23T18:49:18.512Z,48.80
2022-09-23T18:51:55.190Z,40.80
2022-09-23T18:54:27.141Z,34.20
2022-09-23T18:56:53.335Z,28.60
2022-09-23T18:59:24.135Z,23.50
2022-09-23T19:01:50.819Z,14.50
2022-09-23T19:04:19.803Z,10.60
2022-09-23T19:06:46.587Z,14.80
2022-09-23T19:09:14.283Z,13.90
2022-09-23T19:11:40.423Z,12.20
2022-09-23T19:14:10.771Z,14.00
2022-09-23T19:16:38.587Z,15.10
2022-09-23T19:19:05.645Z,18.70
2022-09-23T19:21:32.934Z,16.50
2022-09-23T19:24:04.967Z,16.70
2022-09-23T19:26:34.442Z,15.30
2022-09-23T19:29:02.800Z,15.50
2022-09-23T19:31:32.822Z,15.30
2022-09-23T19:34:01.673Z,18.50
2022-09-23T19:36:33.769Z,13.50
2022-09-23T19:39:04.231Z,14.50
2022-09-23T19:41:32.838Z,15.20
2022-09-23T19:44:02.788Z,11.90
2022-09-23T19:46:34.537Z,17.70
2022-09-23T19:49:00.728Z,18.60
2022-09-23T19:51:27.789Z,15.00
2022-09-23T19:53:53.963Z,12.80
2022-09-23T19:56:20.121Z,12.20
2022-09-23T19:58:50.606Z,13.70
2022-09-23T20:01:18.064Z,13.40
2022-09-23T20:03:45.155Z,12.50
2022-09-23T20:06:11.325Z,14.20
2022-09-23T20:08:38.141Z,14.70
2022-09-23T20:11:19.081Z,15.00
2022-09-23T20:13:50.173Z,13.10
2022-09-23T20:16:19.220Z,13.90
2022-09-23T20:18:50.751Z,14.80
2022-09-23T20:21:16.860Z,13.80
2022-09-23T20:23:43.145Z,13.50
2022-09-23T20:26:28.161Z,12.60
2022-09-23T20:28:54.931Z,15.50
2022-09-23T20:31:22.875Z,15.00
2022-09-23T20:33:57.907Z,18.70
2022-09-23T20:36:28.695Z,20.00
2022-09-23T20:39:00.348Z,17.70
2022-09-23T20:41:29.208Z,20.70
2022-09-23T20:44:00.143Z,22.90
2022-09-23T20:46:28.110Z,22.10
2022-09-23T20:48:55.682Z,20.70
2022-09-23T20:51:23.521Z,19.40
2022-09-23T20:53:54.068Z,19.50
2022-09-23T20:56:21.221Z,18.20
2022-09-23T20:58:49.825Z,14.50
2022-09-23T21:01:16.983Z,15.40
2022-09-23T21:03:45.962Z,18.20
2022-09-23T21:06:14.020Z,22.10
2022-09-23T21:08:41.783Z,19.20
2022-09-23T21:11:11.827Z,24.10
2022-09-23T21:13:38.648Z,17.70
2022-09-23T21:16:11.065Z,16.90
2022-09-23T21:18:38.059Z,19.90
2022-09-23T21:21:05.772Z,17.80
2022-09-23T21:23:38.455Z,15.40
2022-09-23T21:26:07.243Z,15.00
2022-09-23T21:28:35.348Z,16.00
2022-09-23T21:31:04.779Z,15.30
2022-09-23T21:33:31.413Z,13.00
2022-09-23T21:36:02.998Z,10.70
2022-09-23T21:38:30.320Z,11.10
2022-09-23T21:41:01.236Z,14.80
2022-09-23T21:43:32.743Z,18.30
2022-09-23T21:46:04.742Z,15.40
2022-09-23T21:48:33.645Z,13.90
2022-09-23T21:51:01.980Z,14.80
2022-09-23T21:53:29.762Z,20.20
2022-09-23T21:56:05.179Z,26.10
2022-09-23T21:58:32.648Z,36.40
2022-09-23T22:00:59.026Z,31.40
2022-09-23T22:03:25.528Z,23.60
2022-09-23T22:06:01.975Z,19.90
2022-09-23T22:08:36.419Z,11.10
2022-09-23T22:11:05.055Z,12.30
2022-09-23T22:13:31.235Z,13.30
2022-09-23T22:16:00.871Z,13.80
2022-09-23T22:18:28.107Z,13.40
2022-09-23T22:20:58.554Z,12.20
2022-09-23T22:23:24.792Z,11.40
2022-09-23T22:26:02.817Z,8.90
2022-09-23T22:28:51.302Z,12.30
2022-09-23T22:31:36.012Z,11.70
2022-09-23T22:34:02.180Z,12.60
2022-09-23T22:36:28.290Z,9.80
2022-09-23T22:39:00.162Z,12.20
2022-09-23T22:41:27.049Z,11.00
2022-09-23T22:43:53.379Z,8.90
2022-09-23T22:46:21.622Z,7.70
2022-09-23T22:48:51.755Z,6.70
2022-09-23T22:51:17.877Z,8.30
2022-09-23T22:53:44.115Z,8.90
2022-09-23T22:56:10.338Z,12.30
2022-09-23T22:58:36.493Z,13.30
2022-09-23T23:01:02.610Z,15.00
2022-09-23T23:03:30.019Z,13.50
2022-09-23T23:06:00.651Z,13.40
2022-09-23T23:08:28.413Z,12.40
2022-09-23T23:10:56.125Z,11.70
2022-09-23T23:13:27.912Z,8.60
2022-09-23T23:15:54.078Z,8.80
2022-09-23T23:18:20.236Z,8.80
2022-09-23T23:20:46.329Z,6.70
2022-09-23T23:23:12.466Z,8.40
2022-09-23T23:25:38.758Z,10.70
2022-09-23T23:28:05.419Z,10.60
2022-09-23T23:30:33.330Z,9.50
2022-09-23T23:32:59.531Z,7.60
2022-09-23T23:35:25.587Z,7.10
2022-09-23T23:37:51.664Z,7.70
2022-09-23T23:40:19.687Z,6.70
2022-09-23T23:42:46.471Z,7.10
2022-09-23T23:45:12.618Z,5.30
2022-09-23T23:47:39.671Z,6.30
2022-09-23T23:50:06.099Z,6.00
2022-09-23T23:52:32.237Z,6.40
2022-09-23T23:54:58.365Z,6.60
2022-09-23T23:57:24.456Z,8.20
2022-09-23T23:59:50.560Z,6.30
